Terminal Aerodrome Forecast
Issued by NWS Spokane, WA

Home | Current Version | Previous Version | Text Only | Print | Product List | Glossary On
Versions: 1 2 3 4 5 6 7 8 9 10 11 12 13 14 15 16 17 18 19 20 21 22 23 24 25 26 27 28 29 30 31 32 33 34 35 36 37 38 39 40 41 42 43 44
000
FTUS46 KOTX 261131
TAFGEG
TAF
KGEG 261131Z 2612/2712 13007KT P6SM SCT045 BKN120
     FM261900 14008KT P6SM SCT060 OVC100
     FM262200 13008KT 6SM -RA BR BKN025 OVC045
     FM270000 12005KT 4SM -RA BR OVC025
     FM270400 15006KT P6SM -RA SCT015 OVC025
     FM270700 19007KT 6SM -RA BR OVC017=

USA.gov is the U.S. government's official web portal to all federal, state and local government web resources and services.